sensor_id;sensor_type;location;lat;lon;timestamp;temperature;humidity
59975;DHT22;62136;-35.664;-63.766;2023-04-29T00:01:21;25.10;50.30
59975;DHT22;62136;-35.664;-63.766;2023-04-29T00:03:48;25.10;50.40
59975;DHT22;62136;-35.664;-63.766;2023-04-29T00:06:15;25.10;50.60
59975;DHT22;62136;-35.664;-63.766;2023-04-29T00:08:43;25.10;50.50
59975;DHT22;62136;-35.664;-63.766;2023-04-29T00:11:10;25.10;50.80
59975;DHT22;62136;-35.664;-63.766;2023-04-29T00:13:37;25.10;51.00
59975;DHT22;62136;-35.664;-63.766;2023-04-29T00:16:07;25.00;51.00
59975;DHT22;62136;-35.664;-63.766;2023-04-29T00:18:37;25.00;51.10
59975;DHT22;62136;-35.664;-63.766;2023-04-29T00:21:04;25.00;51.00
59975;DHT22;62136;-35.664;-63.766;2023-04-29T00:23:35;25.00;51.50
59975;DHT22;62136;-35.664;-63.766;2023-04-29T00:26:02;25.00;51.30
59975;DHT22;62136;-35.664;-63.766;2023-04-29T00:28:29;25.00;51.30
59975;DHT22;62136;-35.664;-63.766;2023-04-29T00:30:56;25.00;51.40
59975;DHT22;62136;-35.664;-63.766;2023-04-29T00:33:23;25.00;51.80
59975;DHT22;62136;-35.664;-63.766;2023-04-29T00:35:50;25.00;51.50
59975;DHT22;62136;-35.664;-63.766;2023-04-29T00:38:17;24.90;51.50
59975;DHT22;62136;-35.664;-63.766;2023-04-29T00:40:46;24.90;51.60
59975;DHT22;62136;-35.664;-63.766;2023-04-29T00:43:13;24.90;51.60
59975;DHT22;62136;-35.664;-63.766;2023-04-29T00:45:40;24.90;51.70
59975;DHT22;62136;-35.664;-63.766;2023-04-29T00:48:07;24.90;51.90
59975;DHT22;62136;-35.664;-63.766;2023-04-29T00:50:35;24.90;52.00
59975;DHT22;62136;-35.664;-63.766;2023-04-29T00:53:02;24.90;52.00
59975;DHT22;62136;-35.664;-63.766;2023-04-29T00:55:30;24.90;52.10
59975;DHT22;62136;-35.664;-63.766;2023-04-29T00:57:57;24.90;52.30
59975;DHT22;62136;-35.664;-63.766;2023-04-29T01:00:24;24.90;52.10
59975;DHT22;62136;-35.664;-63.766;2023-04-29T01:02:53;24.90;52.20
59975;DHT22;62136;-35.664;-63.766;2023-04-29T01:05:23;24.90;52.30
59975;DHT22;62136;-35.664;-63.766;2023-04-29T01:13:59;24.80;52.40
59975;DHT22;62136;-35.664;-63.766;2023-04-29T01:16:36;24.80;52.50
59975;DHT22;62136;-35.664;-63.766;2023-04-29T01:19:14;24.80;52.50
59975;DHT22;62136;-35.664;-63.766;2023-04-29T01:21:49;24.80;52.70
59975;DHT22;62136;-35.664;-63.766;2023-04-29T01:24:16;24.80;52.80
59975;DHT22;62136;-35.664;-63.766;2023-04-29T01:26:55;24.80;52.90
59975;DHT22;62136;-35.664;-63.766;2023-04-29T01:32:07;24.70;52.90
59975;DHT22;62136;-35.664;-63.766;2023-04-29T01:34:48;24.70;53.30
59975;DHT22;62136;-35.664;-63.766;2023-04-29T01:40:36;24.70;53.00
59975;DHT22;62136;-35.664;-63.766;2023-04-29T01:43:05;24.70;53.10
59975;DHT22;62136;-35.664;-63.766;2023-04-29T01:45:38;24.70;53.20
59975;DHT22;62136;-35.664;-63.766;2023-04-29T01:48:13;24.70;53.20
59975;DHT22;62136;-35.664;-63.766;2023-04-29T01:50:40;24.70;53.30
59975;DHT22;62136;-35.664;-63.766;2023-04-29T01:53:08;24.70;53.40
59975;DHT22;62136;-35.664;-63.766;2023-04-29T01:55:35;24.70;53.40
59975;DHT22;62136;-35.664;-63.766;2023-04-29T01:58:02;24.70;53.50
59975;DHT22;62136;-35.664;-63.766;2023-04-29T02:00:29;24.60;53.50
59975;DHT22;62136;-35.664;-63.766;2023-04-29T02:02:56;24.60;53.50
59975;DHT22;62136;-35.664;-63.766;2023-04-29T02:05:23;24.60;53.50
59975;DHT22;62136;-35.664;-63.766;2023-04-29T02:07:50;24.60;53.60
59975;DHT22;62136;-35.664;-63.766;2023-04-29T02:10:17;24.60;53.70
59975;DHT22;62136;-35.664;-63.766;2023-04-29T02:12:44;24.60;53.80
59975;DHT22;62136;-35.664;-63.766;2023-04-29T02:15:11;24.60;53.80
59975;DHT22;62136;-35.664;-63.766;2023-04-29T02:17:38;24.60;53.80
59975;DHT22;62136;-35.664;-63.766;2023-04-29T02:20:09;24.60;53.90
59975;DHT22;62136;-35.664;-63.766;2023-04-29T02:22:36;24.50;53.90
59975;DHT22;62136;-35.664;-63.766;2023-04-29T02:25:04;24.60;54.00
59975;DHT22;62136;-35.664;-63.766;2023-04-29T02:27:38;24.50;53.90
59975;DHT22;62136;-35.664;-63.766;2023-04-29T02:30:05;24.50;54.00
59975;DHT22;62136;-35.664;-63.766;2023-04-29T02:32:32;24.50;54.00
59975;DHT22;62136;-35.664;-63.766;2023-04-29T02:35:05;24.50;54.10
59975;DHT22;62136;-35.664;-63.766;2023-04-29T02:37:33;24.50;54.10
59975;DHT22;62136;-35.664;-63.766;2023-04-29T02:40:00;24.50;54.10
59975;DHT22;62136;-35.664;-63.766;2023-04-29T02:42:28;24.50;54.20
59975;DHT22;62136;-35.664;-63.766;2023-04-29T02:44:56;24.50;54.40
59975;DHT22;62136;-35.664;-63.766;2023-04-29T02:47:23;24.50;54.80
59975;DHT22;62136;-35.664;-63.766;2023-04-29T02:49:50;24.50;54.40
59975;DHT22;62136;-35.664;-63.766;2023-04-29T02:52:17;24.50;54.40
59975;DHT22;62136;-35.664;-63.766;2023-04-29T02:54:44;24.40;54.50
59975;DHT22;62136;-35.664;-63.766;2023-04-29T02:57:11;24.40;54.60
59975;DHT22;62136;-35.664;-63.766;2023-04-29T02:59:38;24.40;54.50
59975;DHT22;62136;-35.664;-63.766;2023-04-29T03:02:05;24.40;54.70
59975;DHT22;62136;-35.664;-63.766;2023-04-29T03:04:32;24.40;54.70
59975;DHT22;62136;-35.664;-63.766;2023-04-29T03:06:59;24.40;54.70
59975;DHT22;62136;-35.664;-63.766;2023-04-29T03:09:29;24.40;54.70
59975;DHT22;62136;-35.664;-63.766;2023-04-29T03:12:06;24.40;54.70
59975;DHT22;62136;-35.664;-63.766;2023-04-29T03:14:33;24.40;54.80
59975;DHT22;62136;-35.664;-63.766;2023-04-29T03:17:01;24.30;54.90
59975;DHT22;62136;-35.664;-63.766;2023-04-29T03:19:30;24.30;55.00
59975;DHT22;62136;-35.664;-63.766;2023-04-29T03:21:57;24.30;54.90
59975;DHT22;62136;-35.664;-63.766;2023-04-29T03:24:24;24.40;54.90
59975;DHT22;62136;-35.664;-63.766;2023-04-29T03:26:51;24.30;55.00
59975;DHT22;62136;-35.664;-63.766;2023-04-29T03:29:18;24.30;54.90
59975;DHT22;62136;-35.664;-63.766;2023-04-29T03:31:45;24.30;55.00
59975;DHT22;62136;-35.664;-63.766;2023-04-29T03:34:12;24.30;55.00
59975;DHT22;62136;-35.664;-63.766;2023-04-29T03:36:42;24.30;55.00
59975;DHT22;62136;-35.664;-63.766;2023-04-29T03:39:12;24.30;55.20
59975;DHT22;62136;-35.664;-63.766;2023-04-29T03:41:42;24.30;55.20
59975;DHT22;62136;-35.664;-63.766;2023-04-29T03:44:09;24.30;55.20
59975;DHT22;62136;-35.664;-63.766;2023-04-29T03:46:36;24.30;55.20
59975;DHT22;62136;-35.664;-63.766;2023-04-29T03:49:03;24.30;55.30
59975;DHT22;62136;-35.664;-63.766;2023-04-29T03:51:33;24.30;55.20
59975;DHT22;62136;-35.664;-63.766;2023-04-29T03:54:00;24.30;55.30
59975;DHT22;62136;-35.664;-63.766;2023-04-29T03:56:27;24.20;55.30
59975;DHT22;62136;-35.664;-63.766;2023-04-29T03:58:54;24.20;55.40
59975;DHT22;62136;-35.664;-63.766;2023-04-29T04:01:21;24.20;55.30
59975;DHT22;62136;-35.664;-63.766;2023-04-29T04:03:48;24.20;55.40
59975;DHT22;62136;-35.664;-63.766;2023-04-29T04:06:15;24.20;55.40
59975;DHT22;62136;-35.664;-63.766;2023-04-29T04:08:42;24.20;55.50
59975;DHT22;62136;-35.664;-63.766;2023-04-29T04:11:09;24.20;55.40
59975;DHT22;62136;-35.664;-63.766;2023-04-29T04:13:38;24.10;55.40
59975;DHT22;62136;-35.664;-63.766;2023-04-29T04:16:05;24.10;55.40
59975;DHT22;62136;-35.664;-63.766;2023-04-29T04:18:32;24.10;55.50
59975;DHT22;62136;-35.664;-63.766;2023-04-29T04:21:05;24.10;55.50
59975;DHT22;62136;-35.664;-63.766;2023-04-29T04:23:33;24.10;55.50
59975;DHT22;62136;-35.664;-63.766;2023-04-29T04:26:00;24.10;55.50
59975;DHT22;62136;-35.664;-63.766;2023-04-29T04:28:27;24.10;55.60
59975;DHT22;62136;-35.664;-63.766;2023-04-29T04:30:54;24.10;55.60
59975;DHT22;62136;-35.664;-63.766;2023-04-29T04:33:21;24.10;55.50
59975;DHT22;62136;-35.664;-63.766;2023-04-29T04:35:48;24.10;55.60
59975;DHT22;62136;-35.664;-63.766;2023-04-29T04:38:15;24.10;55.60
59975;DHT22;62136;-35.664;-63.766;2023-04-29T04:40:43;24.10;55.70
59975;DHT22;62136;-35.664;-63.766;2023-04-29T04:43:10;24.10;55.60
59975;DHT22;62136;-35.664;-63.766;2023-04-29T04:45:37;24.00;55.60
59975;DHT22;62136;-35.664;-63.766;2023-04-29T04:48:04;24.00;55.70
59975;DHT22;62136;-35.664;-63.766;2023-04-29T04:50:31;24.00;55.70
59975;DHT22;62136;-35.664;-63.766;2023-04-29T04:52:58;24.00;55.70
59975;DHT22;62136;-35.664;-63.766;2023-04-29T04:55:26;24.00;55.80
59975;DHT22;62136;-35.664;-63.766;2023-04-29T04:57:53;24.00;55.80
59975;DHT22;62136;-35.664;-63.766;2023-04-29T05:00:20;23.90;55.70
59975;DHT22;62136;-35.664;-63.766;2023-04-29T05:02:47;24.00;55.80
59975;DHT22;62136;-35.664;-63.766;2023-04-29T05:05:14;24.00;55.80
59975;DHT22;62136;-35.664;-63.766;2023-04-29T05:07:41;24.00;55.80
59975;DHT22;62136;-35.664;-63.766;2023-04-29T05:10:08;23.90;55.80
59975;DHT22;62136;-35.664;-63.766;2023-04-29T05:12:36;23.90;55.80
59975;DHT22;62136;-35.664;-63.766;2023-04-29T05:15:03;23.90;55.80
59975;DHT22;62136;-35.664;-63.766;2023-04-29T05:17:30;23.90;55.80
59975;DHT22;62136;-35.664;-63.766;2023-04-29T05:19:57;23.90;55.90
59975;DHT22;62136;-35.664;-63.766;2023-04-29T05:22:24;23.90;56.00
59975;DHT22;62136;-35.664;-63.766;2023-04-29T05:24:53;23.90;55.90
59975;DHT22;62136;-35.664;-63.766;2023-04-29T05:27:28;23.90;56.00
59975;DHT22;62136;-35.664;-63.766;2023-04-29T05:29:55;23.80;55.90
59975;DHT22;62136;-35.664;-63.766;2023-04-29T05:32:22;23.90;56.00
59975;DHT22;62136;-35.664;-63.766;2023-04-29T05:34:49;23.80;55.90
59975;DHT22;62136;-35.664;-63.766;2023-04-29T05:37:16;23.80;55.90
59975;DHT22;62136;-35.664;-63.766;2023-04-29T05:39:43;23.80;56.00
59975;DHT22;62136;-35.664;-63.766;2023-04-29T05:42:10;23.80;56.00
59975;DHT22;62136;-35.664;-63.766;2023-04-29T05:44:37;23.80;56.00
59975;DHT22;62136;-35.664;-63.766;2023-04-29T05:47:05;23.70;56.00
59975;DHT22;62136;-35.664;-63.766;2023-04-29T05:49:32;23.70;56.00
59975;DHT22;62136;-35.664;-63.766;2023-04-29T05:51:59;23.80;56.10
59975;DHT22;62136;-35.664;-63.766;2023-04-29T05:54:29;23.80;56.00
59975;DHT22;62136;-35.664;-63.766;2023-04-29T05:56:56;23.80;56.10
59975;DHT22;62136;-35.664;-63.766;2023-04-29T05:59:23;23.80;56.10
59975;DHT22;62136;-35.664;-63.766;2023-04-29T06:01:50;23.80;56.10
59975;DHT22;62136;-35.664;-63.766;2023-04-29T06:04:17;23.80;56.10
59975;DHT22;62136;-35.664;-63.766;2023-04-29T06:06:44;23.80;56.10
59975;DHT22;62136;-35.664;-63.766;2023-04-29T06:09:11;23.70;56.10
59975;DHT22;62136;-35.664;-63.766;2023-04-29T06:11:40;23.70;56.00
59975;DHT22;62136;-35.664;-63.766;2023-04-29T06:14:09;23.70;56.10
59975;DHT22;62136;-35.664;-63.766;2023-04-29T06:16:36;23.70;56.10
59975;DHT22;62136;-35.664;-63.766;2023-04-29T06:19:04;23.70;56.20
59975;DHT22;62136;-35.664;-63.766;2023-04-29T06:21:31;23.70;56.10
59975;DHT22;62136;-35.664;-63.766;2023-04-29T06:23:58;23.70;56.10
59975;DHT22;62136;-35.664;-63.766;2023-04-29T06:26:25;23.70;56.10
59975;DHT22;62136;-35.664;-63.766;2023-04-29T06:28:52;23.70;56.20
59975;DHT22;62136;-35.664;-63.766;2023-04-29T06:31:20;23.70;56.10
59975;DHT22;62136;-35.664;-63.766;2023-04-29T06:33:47;23.60;56.20
59975;DHT22;62136;-35.664;-63.766;2023-04-29T06:36:14;23.70;56.10
59975;DHT22;62136;-35.664;-63.766;2023-04-29T06:38:41;23.60;56.20
59975;DHT22;62136;-35.664;-63.766;2023-04-29T06:41:08;23.60;56.20
59975;DHT22;62136;-35.664;-63.766;2023-04-29T06:43:35;23.60;56.30
59975;DHT22;62136;-35.664;-63.766;2023-04-29T06:46:02;23.60;56.70
59975;DHT22;62136;-35.664;-63.766;2023-04-29T06:48:29;23.60;56.20
59975;DHT22;62136;-35.664;-63.766;2023-04-29T06:50:57;23.60;56.20
59975;DHT22;62136;-35.664;-63.766;2023-04-29T06:55:57;23.60;56.20
59975;DHT22;62136;-35.664;-63.766;2023-04-29T06:58:24;23.60;56.20
59975;DHT22;62136;-35.664;-63.766;2023-04-29T07:00:51;23.60;56.20
59975;DHT22;62136;-35.664;-63.766;2023-04-29T07:03:18;23.60;56.10
59975;DHT22;62136;-35.664;-63.766;2023-04-29T07:05:45;23.60;56.20
59975;DHT22;62136;-35.664;-63.766;2023-04-29T07:08:13;23.60;56.20
59975;DHT22;62136;-35.664;-63.766;2023-04-29T07:10:40;23.60;56.20
59975;DHT22;62136;-35.664;-63.766;2023-04-29T07:13:08;23.60;56.20
59975;DHT22;62136;-35.664;-63.766;2023-04-29T07:15:36;23.60;56.30
59975;DHT22;62136;-35.664;-63.766;2023-04-29T07:18:04;23.60;56.20
59975;DHT22;62136;-35.664;-63.766;2023-04-29T07:20:31;23.60;56.10
59975;DHT22;62136;-35.664;-63.766;2023-04-29T07:22:58;23.60;56.30
59975;DHT22;62136;-35.664;-63.766;2023-04-29T07:25:28;23.60;56.10
59975;DHT22;62136;-35.664;-63.766;2023-04-29T07:27:56;23.50;56.10
59975;DHT22;62136;-35.664;-63.766;2023-04-29T07:30:23;23.50;56.30
59975;DHT22;62136;-35.664;-63.766;2023-04-29T07:32:53;23.50;56.30
59975;DHT22;62136;-35.664;-63.766;2023-04-29T07:35:23;23.50;56.10
59975;DHT22;62136;-35.664;-63.766;2023-04-29T07:37:57;23.50;56.40
59975;DHT22;62136;-35.664;-63.766;2023-04-29T07:40:24;23.50;56.40
59975;DHT22;62136;-35.664;-63.766;2023-04-29T07:42:51;23.50;56.40
59975;DHT22;62136;-35.664;-63.766;2023-04-29T07:45:18;23.50;56.30
59975;DHT22;62136;-35.664;-63.766;2023-04-29T07:47:45;23.50;56.50
59975;DHT22;62136;-35.664;-63.766;2023-04-29T07:50:12;23.40;56.40
59975;DHT22;62136;-35.664;-63.766;2023-04-29T07:52:40;23.40;56.40
59975;DHT22;62136;-35.664;-63.766;2023-04-29T07:55:07;23.40;56.40
59975;DHT22;62136;-35.664;-63.766;2023-04-29T07:57:34;23.40;56.50
59975;DHT22;62136;-35.664;-63.766;2023-04-29T08:00:01;23.40;56.50
59975;DHT22;62136;-35.664;-63.766;2023-04-29T08:02:28;23.40;56.50
59975;DHT22;62136;-35.664;-63.766;2023-04-29T08:04:55;23.40;56.60
59975;DHT22;62136;-35.664;-63.766;2023-04-29T08:07:22;23.30;56.50
59975;DHT22;62136;-35.664;-63.766;2023-04-29T08:09:49;23.40;56.60
59975;DHT22;62136;-35.664;-63.766;2023-04-29T08:12:16;23.30;56.60
59975;DHT22;62136;-35.664;-63.766;2023-04-29T08:14:43;23.30;56.70
59975;DHT22;62136;-35.664;-63.766;2023-04-29T08:17:10;23.30;56.70
59975;DHT22;62136;-35.664;-63.766;2023-04-29T08:19:37;23.30;56.70
59975;DHT22;62136;-35.664;-63.766;2023-04-29T08:22:04;23.30;56.70
59975;DHT22;62136;-35.664;-63.766;2023-04-29T08:24:31;23.30;56.80
59975;DHT22;62136;-35.664;-63.766;2023-04-29T08:27:00;23.30;56.80
59975;DHT22;62136;-35.664;-63.766;2023-04-29T08:29:27;23.30;56.80
59975;DHT22;62136;-35.664;-63.766;2023-04-29T08:31:58;23.30;56.70
59975;DHT22;62136;-35.664;-63.766;2023-04-29T08:34:25;23.30;56.90
59975;DHT22;62136;-35.664;-63.766;2023-04-29T08:36:52;23.30;56.80
59975;DHT22;62136;-35.664;-63.766;2023-04-29T08:39:19;23.30;56.80
59975;DHT22;62136;-35.664;-63.766;2023-04-29T08:41:46;23.30;56.80
59975;DHT22;62136;-35.664;-63.766;2023-04-29T08:44:17;23.20;56.80
59975;DHT22;62136;-35.664;-63.766;2023-04-29T08:46:47;23.20;56.80
59975;DHT22;62136;-35.664;-63.766;2023-04-29T08:49:14;23.20;56.90
59975;DHT22;62136;-35.664;-63.766;2023-04-29T08:51:41;23.20;56.80
59975;DHT22;62136;-35.664;-63.766;2023-04-29T08:54:08;23.20;57.00
59975;DHT22;62136;-35.664;-63.766;2023-04-29T08:56:37;23.20;56.90
59975;DHT22;62136;-35.664;-63.766;2023-04-29T08:59:05;23.20;56.90
59975;DHT22;62136;-35.664;-63.766;2023-04-29T09:01:36;23.20;57.00
59975;DHT22;62136;-35.664;-63.766;2023-04-29T09:04:21;23.20;57.10
59975;DHT22;62136;-35.664;-63.766;2023-04-29T09:06:52;23.20;57.00
59975;DHT22;62136;-35.664;-63.766;2023-04-29T09:09:23;23.20;57.10
59975;DHT22;62136;-35.664;-63.766;2023-04-29T09:11:50;23.10;57.00
59975;DHT22;62136;-35.664;-63.766;2023-04-29T09:14:19;23.20;57.00
59975;DHT22;62136;-35.664;-63.766;2023-04-29T09:16:46;23.10;57.10
59975;DHT22;62136;-35.664;-63.766;2023-04-29T09:19:32;23.10;57.10
59975;DHT22;62136;-35.664;-63.766;2023-04-29T09:22:03;23.10;57.20
59975;DHT22;62136;-35.664;-63.766;2023-04-29T09:24:32;23.10;57.60
59975;DHT22;62136;-35.664;-63.766;2023-04-29T09:26:59;23.10;57.30
59975;DHT22;62136;-35.664;-63.766;2023-04-29T09:29:28;23.00;57.20
59975;DHT22;62136;-35.664;-63.766;2023-04-29T09:31:58;23.10;57.40
59975;DHT22;62136;-35.664;-63.766;2023-04-29T09:34:33;23.00;57.10
59975;DHT22;62136;-35.664;-63.766;2023-04-29T09:37:23;23.00;57.40
59975;DHT22;62136;-35.664;-63.766;2023-04-29T09:39:50;23.00;57.30
59975;DHT22;62136;-35.664;-63.766;2023-04-29T09:42:17;23.00;57.30
59975;DHT22;62136;-35.664;-63.766;2023-04-29T09:44:45;23.00;57.30
59975;DHT22;62136;-35.664;-63.766;2023-04-29T09:47:12;23.00;57.50
59975;DHT22;62136;-35.664;-63.766;2023-04-29T09:49:41;23.00;57.40
59975;DHT22;62136;-35.664;-63.766;2023-04-29T09:52:12;23.00;57.50
59975;DHT22;62136;-35.664;-63.766;2023-04-29T09:54:41;23.00;57.50
59975;DHT22;62136;-35.664;-63.766;2023-04-29T09:57:10;23.00;57.50
59975;DHT22;62136;-35.664;-63.766;2023-04-29T09:59:39;23.00;57.50
59975;DHT22;62136;-35.664;-63.766;2023-04-29T10:02:17;22.90;57.20
59975;DHT22;62136;-35.664;-63.766;2023-04-29T10:04:46;22.90;57.50
59975;DHT22;62136;-35.664;-63.766;2023-04-29T10:07:15;22.90;57.50
59975;DHT22;62136;-35.664;-63.766;2023-04-29T10:09:44;22.90;57.60
59975;DHT22;62136;-35.664;-63.766;2023-04-29T10:12:16;22.90;57.60
59975;DHT22;62136;-35.664;-63.766;2023-04-29T10:14:49;22.90;57.80
59975;DHT22;62136;-35.664;-63.766;2023-04-29T10:17:53;22.90;57.70
59975;DHT22;62136;-35.664;-63.766;2023-04-29T10:20:24;22.80;57.70
59975;DHT22;62136;-35.664;-63.766;2023-04-29T10:22:53;22.90;57.70
59975;DHT22;62136;-35.664;-63.766;2023-04-29T10:25:23;22.90;57.80
59975;DHT22;62136;-35.664;-63.766;2023-04-29T10:27:51;22.80;57.80
59975;DHT22;62136;-35.664;-63.766;2023-04-29T10:30:21;22.80;57.70
59975;DHT22;62136;-35.664;-63.766;2023-04-29T10:32:49;22.80;57.80
59975;DHT22;62136;-35.664;-63.766;2023-04-29T10:35:17;22.80;57.90
59975;DHT22;62136;-35.664;-63.766;2023-04-29T10:37:46;22.80;57.90
59975;DHT22;62136;-35.664;-63.766;2023-04-29T10:42:53;22.80;57.90
59975;DHT22;62136;-35.664;-63.766;2023-04-29T10:50:40;22.70;57.90
59975;DHT22;62136;-35.664;-63.766;2023-04-29T10:53:10;22.70;58.00
59975;DHT22;62136;-35.664;-63.766;2023-04-29T10:55:38;22.70;58.10
59975;DHT22;62136;-35.664;-63.766;2023-04-29T10:58:08;22.70;58.10
59975;DHT22;62136;-35.664;-63.766;2023-04-29T11:00:52;22.70;58.10
59975;DHT22;62136;-35.664;-63.766;2023-04-29T11:03:51;22.60;58.10
59975;DHT22;62136;-35.664;-63.766;2023-04-29T11:14:22;22.60;58.20
59975;DHT22;62136;-35.664;-63.766;2023-04-29T11:17:00;22.60;58.20
59975;DHT22;62136;-35.664;-63.766;2023-04-29T11:27:32;22.60;58.30
59975;DHT22;62136;-35.664;-63.766;2023-04-29T11:30:00;22.60;58.30
59975;DHT22;62136;-35.664;-63.766;2023-04-29T11:32:40;22.60;58.40
59975;DHT22;62136;-35.664;-63.766;2023-04-29T11:35:13;22.60;58.40
59975;DHT22;62136;-35.664;-63.766;2023-04-29T11:37:42;22.60;58.40
59975;DHT22;62136;-35.664;-63.766;2023-04-29T11:40:10;22.60;58.50
59975;DHT22;62136;-35.664;-63.766;2023-04-29T11:42:46;22.60;58.50
59975;DHT22;62136;-35.664;-63.766;2023-04-29T11:45:17;22.60;58.50
59975;DHT22;62136;-35.664;-63.766;2023-04-29T11:47:45;22.60;58.50
59975;DHT22;62136;-35.664;-63.766;2023-04-29T11:50:15;22.60;58.50
59975;DHT22;62136;-35.664;-63.766;2023-04-29T11:52:46;22.60;58.40
59975;DHT22;62136;-35.664;-63.766;2023-04-29T11:55:14;22.60;58.90
59975;DHT22;62136;-35.664;-63.766;2023-04-29T11:57:41;22.60;58.40
59975;DHT22;62136;-35.664;-63.766;2023-04-29T12:00:12;22.60;58.40
59975;DHT22;62136;-35.664;-63.766;2023-04-29T12:02:44;22.60;58.50
59975;DHT22;62136;-35.664;-63.766;2023-04-29T12:05:14;22.60;58.50
59975;DHT22;62136;-35.664;-63.766;2023-04-29T12:07:42;22.60;58.50
59975;DHT22;62136;-35.664;-63.766;2023-04-29T12:10:10;22.60;58.50
59975;DHT22;62136;-35.664;-63.766;2023-04-29T12:12:41;22.60;58.50
59975;DHT22;62136;-35.664;-63.766;2023-04-29T12:15:12;22.70;58.50
59975;DHT22;62136;-35.664;-63.766;2023-04-29T12:17:39;22.60;58.50
59975;DHT22;62136;-35.664;-63.766;2023-04-29T12:20:07;22.60;58.40
59975;DHT22;62136;-35.664;-63.766;2023-04-29T12:22:35;22.70;58.40
59975;DHT22;62136;-35.664;-63.766;2023-04-29T12:25:03;22.60;58.40
59975;DHT22;62136;-35.664;-63.766;2023-04-29T12:27:31;22.70;58.50
59975;DHT22;62136;-35.664;-63.766;2023-04-29T12:29:59;22.70;58.50
59975;DHT22;62136;-35.664;-63.766;2023-04-29T12:32:26;22.70;58.50
59975;DHT22;62136;-35.664;-63.766;2023-04-29T12:34:53;22.70;58.50
59975;DHT22;62136;-35.664;-63.766;2023-04-29T12:37:23;22.80;58.50
59975;DHT22;62136;-35.664;-63.766;2023-04-29T12:39:53;22.80;58.40
59975;DHT22;62136;-35.664;-63.766;2023-04-29T12:42:20;22.80;58.30
59975;DHT22;62136;-35.664;-63.766;2023-04-29T12:44:47;22.90;58.40
59975;DHT22;62136;-35.664;-63.766;2023-04-29T12:47:15;22.80;58.40
59975;DHT22;62136;-35.664;-63.766;2023-04-29T12:49:46;22.90;58.40
59975;DHT22;62136;-35.664;-63.766;2023-04-29T12:52:15;22.90;58.30
59975;DHT22;62136;-35.664;-63.766;2023-04-29T12:54:42;22.90;58.30
59975;DHT22;62136;-35.664;-63.766;2023-04-29T12:57:10;22.90;58.20
59975;DHT22;62136;-35.664;-63.766;2023-04-29T12:59:37;23.00;58.30
59975;DHT22;62136;-35.664;-63.766;2023-04-29T13:02:06;23.00;58.20
59975;DHT22;62136;-35.664;-63.766;2023-04-29T13:04:33;23.00;58.20
59975;DHT22;62136;-35.664;-63.766;2023-04-29T13:07:00;23.00;58.10
59975;DHT22;62136;-35.664;-63.766;2023-04-29T13:09:27;23.00;58.10
59975;DHT22;62136;-35.664;-63.766;2023-04-29T13:11:55;23.00;58.10
59975;DHT22;62136;-35.664;-63.766;2023-04-29T13:14:23;23.10;58.00
59975;DHT22;62136;-35.664;-63.766;2023-04-29T13:16:50;23.10;58.00
59975;DHT22;62136;-35.664;-63.766;2023-04-29T13:19:20;23.10;57.90
59975;DHT22;62136;-35.664;-63.766;2023-04-29T13:21:47;23.20;57.90
59975;DHT22;62136;-35.664;-63.766;2023-04-29T13:24:16;23.20;57.90
59975;DHT22;62136;-35.664;-63.766;2023-04-29T13:26:45;23.20;57.90
59975;DHT22;62136;-35.664;-63.766;2023-04-29T13:29:13;23.20;57.80
59975;DHT22;62136;-35.664;-63.766;2023-04-29T13:31:40;23.20;57.70
59975;DHT22;62136;-35.664;-63.766;2023-04-29T13:34:09;23.30;57.70
59975;DHT22;62136;-35.664;-63.766;2023-04-29T13:36:36;23.30;57.60
59975;DHT22;62136;-35.664;-63.766;2023-04-29T13:39:03;23.30;57.70
59975;DHT22;62136;-35.664;-63.766;2023-04-29T13:41:30;23.30;57.50
59975;DHT22;62136;-35.664;-63.766;2023-04-29T13:43:58;23.30;57.70
59975;DHT22;62136;-35.664;-63.766;2023-04-29T13:46:26;23.30;57.50
59975;DHT22;62136;-35.664;-63.766;2023-04-29T13:48:54;23.40;57.50
59975;DHT22;62136;-35.664;-63.766;2023-04-29T13:51:20;23.40;57.70
59975;DHT22;62136;-35.664;-63.766;2023-04-29T13:53:47;23.40;57.50
59975;DHT22;62136;-35.664;-63.766;2023-04-29T13:56:15;23.50;58.10
59975;DHT22;62136;-35.664;-63.766;2023-04-29T13:58:42;23.50;57.50
59975;DHT22;62136;-35.664;-63.766;2023-04-29T14:01:09;23.50;57.40
59975;DHT22;62136;-35.664;-63.766;2023-04-29T14:03:36;23.50;57.50
59975;DHT22;62136;-35.664;-63.766;2023-04-29T14:06:04;23.60;57.40
59975;DHT22;62136;-35.664;-63.766;2023-04-29T14:08:31;23.60;57.30
59975;DHT22;62136;-35.664;-63.766;2023-04-29T14:10:58;23.60;57.00
59975;DHT22;62136;-35.664;-63.766;2023-04-29T14:13:29;23.60;57.20
59975;DHT22;62136;-35.664;-63.766;2023-04-29T14:15:56;23.60;57.10
59975;DHT22;62136;-35.664;-63.766;2023-04-29T14:18:25;23.70;57.10
59975;DHT22;62136;-35.664;-63.766;2023-04-29T14:20:52;23.70;57.00
59975;DHT22;62136;-35.664;-63.766;2023-04-29T14:23:20;23.80;57.10
59975;DHT22;62136;-35.664;-63.766;2023-04-29T14:25:47;23.70;57.40
59975;DHT22;62136;-35.664;-63.766;2023-04-29T14:28:14;23.70;56.90
59975;DHT22;62136;-35.664;-63.766;2023-04-29T14:30:41;23.80;56.70
59975;DHT22;62136;-35.664;-63.766;2023-04-29T14:33:11;23.80;56.90
59975;DHT22;62136;-35.664;-63.766;2023-04-29T14:35:38;23.90;56.90
59975;DHT22;62136;-35.664;-63.766;2023-04-29T14:38:06;23.90;56.80
59975;DHT22;62136;-35.664;-63.766;2023-04-29T14:40:33;23.90;56.80
59975;DHT22;62136;-35.664;-63.766;2023-04-29T14:43:00;23.90;56.80
59975;DHT22;62136;-35.664;-63.766;2023-04-29T14:45:28;23.90;56.80
59975;DHT22;62136;-35.664;-63.766;2023-04-29T14:47:55;24.00;57.00
59975;DHT22;62136;-35.664;-63.766;2023-04-29T14:50:23;24.00;56.70
59975;DHT22;62136;-35.664;-63.766;2023-04-29T14:52:50;24.00;56.80
59975;DHT22;62136;-35.664;-63.766;2023-04-29T14:55:17;24.00;56.70
59975;DHT22;62136;-35.664;-63.766;2023-04-29T14:57:44;24.10;56.60
59975;DHT22;62136;-35.664;-63.766;2023-04-29T15:00:12;24.10;56.50
59975;DHT22;62136;-35.664;-63.766;2023-04-29T15:02:40;24.10;56.40
59975;DHT22;62136;-35.664;-63.766;2023-04-29T15:05:07;24.10;56.40
59975;DHT22;62136;-35.664;-63.766;2023-04-29T15:07:34;24.10;56.40
59975;DHT22;62136;-35.664;-63.766;2023-04-29T15:10:01;24.20;56.40
59975;DHT22;62136;-35.664;-63.766;2023-04-29T15:12:31;24.20;56.40
59975;DHT22;62136;-35.664;-63.766;2023-04-29T15:14:58;24.20;56.60
59975;DHT22;62136;-35.664;-63.766;2023-04-29T15:17:25;24.30;56.40
59975;DHT22;62136;-35.664;-63.766;2023-04-29T15:19:53;24.30;56.20
59975;DHT22;62136;-35.664;-63.766;2023-04-29T15:22:20;24.30;56.30
59975;DHT22;62136;-35.664;-63.766;2023-04-29T15:24:47;24.30;56.30
59975;DHT22;62136;-35.664;-63.766;2023-04-29T15:27:17;24.40;56.30
59975;DHT22;62136;-35.664;-63.766;2023-04-29T15:29:44;24.40;56.10
59975;DHT22;62136;-35.664;-63.766;2023-04-29T15:32:11;24.50;56.10
59975;DHT22;62136;-35.664;-63.766;2023-04-29T15:34:38;24.50;56.10